sensor_id;sensor_type;location;lat;lon;timestamp;pressure;altitude;pressure_sealevel;temperature;humidity
42811;BME280;28457;55.680;37.656;2022-10-22T00:01:13;100395.94;;;8.32;68.72
42811;BME280;28457;55.680;37.656;2022-10-22T00:03:41;100390.75;;;8.31;68.67
42811;BME280;28457;55.680;37.656;2022-10-22T00:06:10;100393.59;;;8.29;68.60
42811;BME280;28457;55.680;37.656;2022-10-22T00:08:40;100396.94;;;8.31;68.54
42811;BME280;28457;55.680;37.656;2022-10-22T00:11:09;100397.13;;;8.30;68.95
42811;BME280;28457;55.680;37.656;2022-10-22T00:13:38;100386.53;;;8.28;68.89
42811;BME280;28457;55.680;37.656;2022-10-22T00:16:07;100383.00;;;8.28;68.73
42811;BME280;28457;55.680;37.656;2022-10-22T00:18:36;100379.31;;;8.29;68.82
42811;BME280;28457;55.680;37.656;2022-10-22T00:21:06;100387.22;;;8.30;69.21
42811;BME280;28457;55.680;37.656;2022-10-22T00:23:35;100380.19;;;8.29;68.84
42811;BME280;28457;55.680;37.656;2022-10-22T00:26:05;100377.50;;;8.29;68.99
42811;BME280;28457;55.680;37.656;2022-10-22T00:28:33;100378.34;;;8.30;69.32
42811;BME280;28457;55.680;37.656;2022-10-22T00:31:01;100371.28;;;8.29;69.00
42811;BME280;28457;55.680;37.656;2022-10-22T00:33:30;100371.44;;;8.27;69.06
42811;BME280;28457;55.680;37.656;2022-10-22T00:35:58;100372.13;;;8.29;68.83
42811;BME280;28457;55.680;37.656;2022-10-22T00:38:27;100375.66;;;8.30;68.90
42811;BME280;28457;55.680;37.656;2022-10-22T00:40:55;100379.19;;;8.30;69.14
42811;BME280;28457;55.680;37.656;2022-10-22T00:43:26;100373.63;;;8.32;69.14
42811;BME280;28457;55.680;37.656;2022-10-22T00:45:54;100368.25;;;8.32;68.94
42811;BME280;28457;55.680;37.656;2022-10-22T00:48:25;100373.47;;;8.33;69.00
42811;BME280;28457;55.680;37.656;2022-10-22T00:50:57;100373.47;;;8.33;68.84
42811;BME280;28457;55.680;37.656;2022-10-22T00:53:29;100374.97;;;8.36;69.00
42811;BME280;28457;55.680;37.656;2022-10-22T00:55:58;100373.16;;;8.36;68.97
42811;BME280;28457;55.680;37.656;2022-10-22T00:58:34;100372.28;;;8.36;68.96
42811;BME280;28457;55.680;37.656;2022-10-22T01:01:05;100367.09;;;8.34;68.52
42811;BME280;28457;55.680;37.656;2022-10-22T01:03:33;100366.41;;;8.32;68.71
42811;BME280;28457;55.680;37.656;2022-10-22T01:06:03;100363.41;;;8.35;68.27
42811;BME280;28457;55.680;37.656;2022-10-22T01:08:39;100363.59;;;8.34;69.01
42811;BME280;28457;55.680;37.656;2022-10-22T01:11:14;100368.13;;;8.33;69.52
42811;BME280;28457;55.680;37.656;2022-10-22T01:13:57;100370.13;;;8.31;67.95
42811;BME280;28457;55.680;37.656;2022-10-22T01:16:33;100363.41;;;8.27;68.43
42811;BME280;28457;55.680;37.656;2022-10-22T01:19:19;100366.78;;;8.29;68.27
42811;BME280;28457;55.680;37.656;2022-10-22T01:21:57;100366.78;;;8.29;67.97
42811;BME280;28457;55.680;37.656;2022-10-22T01:24:41;100369.78;;;8.26;67.76
42811;BME280;28457;55.680;37.656;2022-10-22T01:27:22;100366.09;;;8.27;68.20
42811;BME280;28457;55.680;37.656;2022-10-22T01:29:56;100376.81;;;8.27;67.81
42811;BME280;28457;55.680;37.656;2022-10-22T01:32:26;100374.31;;;8.26;68.22
42811;BME280;28457;55.680;37.656;2022-10-22T01:34:59;100383.19;;;8.26;69.15
42811;BME280;28457;55.680;37.656;2022-10-22T01:37:30;100373.44;;;8.25;69.14
42811;BME280;28457;55.680;37.656;2022-10-22T01:40:00;100380.50;;;8.26;68.79
42811;BME280;28457;55.680;37.656;2022-10-22T01:42:29;100378.81;;;8.25;69.01
42811;BME280;28457;55.680;37.656;2022-10-22T01:44:59;100376.63;;;8.29;69.27
42811;BME280;28457;55.680;37.656;2022-10-22T01:47:38;100387.22;;;8.30;68.83
42811;BME280;28457;55.680;37.656;2022-10-22T01:50:25;100383.72;;;8.30;68.79
42811;BME280;28457;55.680;37.656;2022-10-22T01:53:09;100374.81;;;8.29;69.57
42811;BME280;28457;55.680;37.656;2022-10-22T01:55:55;100378.47;;;8.28;69.06
42811;BME280;28457;55.680;37.656;2022-10-22T01:58:36;100374.13;;;8.27;68.66
42811;BME280;28457;55.680;37.656;2022-10-22T02:01:16;100390.91;;;8.29;68.16
42811;BME280;28457;55.680;37.656;2022-10-22T02:03:57;100390.22;;;8.27;68.26
42811;BME280;28457;55.680;37.656;2022-10-22T02:06:29;100388.88;;;8.23;68.86
42811;BME280;28457;55.680;37.656;2022-10-22T02:09:00;100386.69;;;8.19;69.31
42811;BME280;28457;55.680;37.656;2022-10-22T02:11:29;100385.31;;;8.14;69.10
42811;BME280;28457;55.680;37.656;2022-10-22T02:14:01;100386.19;;;8.15;69.31
42811;BME280;28457;55.680;37.656;2022-10-22T02:16:34;100385.00;;;8.18;69.11
42811;BME280;28457;55.680;37.656;2022-10-22T02:19:08;100394.38;;;8.13;69.21
42811;BME280;28457;55.680;37.656;2022-10-22T02:21:39;100394.91;;;8.17;69.46
42811;BME280;28457;55.680;37.656;2022-10-22T02:24:07;100395.59;;;8.19;69.36
42811;BME280;28457;55.680;37.656;2022-10-22T02:26:39;100395.25;;;8.22;69.54
42811;BME280;28457;55.680;37.656;2022-10-22T02:29:13;100391.72;;;8.22;69.30
42811;BME280;28457;55.680;37.656;2022-10-22T02:31:45;100399.91;;;8.12;68.96
42811;BME280;28457;55.680;37.656;2022-10-22T02:34:18;100392.72;;;8.12;69.83
42811;BME280;28457;55.680;37.656;2022-10-22T02:36:49;100398.91;;;8.13;69.79
42811;BME280;28457;55.680;37.656;2022-10-22T02:39:20;100397.91;;;8.14;69.64
42811;BME280;28457;55.680;37.656;2022-10-22T02:41:48;100394.91;;;8.17;69.97
42811;BME280;28457;55.680;37.656;2022-10-22T02:44:19;100400.78;;;8.21;69.67
42811;BME280;28457;55.680;37.656;2022-10-22T02:46:49;100399.09;;;8.20;69.67
42811;BME280;28457;55.680;37.656;2022-10-22T02:49:18;100398.09;;;8.21;69.74
42811;BME280;28457;55.680;37.656;2022-10-22T02:51:46;100396.56;;;8.18;69.19
42811;BME280;28457;55.680;37.656;2022-10-22T02:54:15;100398.09;;;8.21;69.01
42811;BME280;28457;55.680;37.656;2022-10-22T02:56:43;100402.31;;;8.23;68.89
42811;BME280;28457;55.680;37.656;2022-10-22T02:59:11;100404.81;;;8.25;68.80
42811;BME280;28457;55.680;37.656;2022-10-22T03:01:40;100404.66;;;8.26;68.71
42811;BME280;28457;55.680;37.656;2022-10-22T03:04:09;100407.34;;;8.26;68.26
42811;BME280;28457;55.680;37.656;2022-10-22T03:06:38;100416.72;;;8.22;68.76
42811;BME280;28457;55.680;37.656;2022-10-22T03:09:10;100401.59;;;8.21;68.84
42811;BME280;28457;55.680;37.656;2022-10-22T03:11:38;100406.66;;;8.24;69.15
42811;BME280;28457;55.680;37.656;2022-10-22T03:14:06;100411.00;;;8.25;68.86
42811;BME280;28457;55.680;37.656;2022-10-22T03:16:35;100406.34;;;8.27;68.89
42811;BME280;28457;55.680;37.656;2022-10-22T03:19:03;100403.81;;;8.26;68.64
42811;BME280;28457;55.680;37.656;2022-10-22T03:21:38;100405.13;;;8.22;67.96
42811;BME280;28457;55.680;37.656;2022-10-22T03:24:09;100401.59;;;8.21;68.03
42811;BME280;28457;55.680;37.656;2022-10-22T03:26:40;100400.44;;;8.15;67.70
42811;BME280;28457;55.680;37.656;2022-10-22T03:29:10;100406.97;;;8.13;67.64
42811;BME280;28457;55.680;37.656;2022-10-22T03:31:40;100402.94;;;8.09;68.15
42811;BME280;28457;55.680;37.656;2022-10-22T03:34:08;100399.72;;;8.05;67.85
42811;BME280;28457;55.680;37.656;2022-10-22T03:36:39;100399.22;;;8.02;68.20
42811;BME280;28457;55.680;37.656;2022-10-22T03:39:09;100394.69;;;8.02;68.46
42811;BME280;28457;55.680;37.656;2022-10-22T03:41:39;100397.03;;;8.05;68.23
42811;BME280;28457;55.680;37.656;2022-10-22T03:44:08;100404.25;;;8.05;68.18
42811;BME280;28457;55.680;37.656;2022-10-22T03:46:36;100403.25;;;8.06;68.08
42811;BME280;28457;55.680;37.656;2022-10-22T03:49:05;100400.56;;;8.06;68.11
42811;BME280;28457;55.680;37.656;2022-10-22T03:51:33;100401.72;;;8.03;68.31
42811;BME280;28457;55.680;37.656;2022-10-22T03:54:03;100410.59;;;8.04;67.89
42811;BME280;28457;55.680;37.656;2022-10-22T03:56:32;100401.50;;;7.97;68.42
42811;BME280;28457;55.680;37.656;2022-10-22T03:59:00;100400.53;;;7.98;68.39
42811;BME280;28457;55.680;37.656;2022-10-22T04:01:29;100408.25;;;8.01;68.39
42811;BME280;28457;55.680;37.656;2022-10-22T04:03:58;100404.06;;;7.98;68.46
42811;BME280;28457;55.680;37.656;2022-10-22T04:06:28;100409.75;;;8.03;68.27
42811;BME280;28457;55.680;37.656;2022-10-22T04:08:58;100406.25;;;8.03;68.42
42811;BME280;28457;55.680;37.656;2022-10-22T04:11:28;100405.09;;;8.05;68.44
42811;BME280;28457;55.680;37.656;2022-10-22T04:13:56;100411.81;;;8.09;68.38
42811;BME280;28457;55.680;37.656;2022-10-22T04:16:25;100406.25;;;8.11;68.25
42811;BME280;28457;55.680;37.656;2022-10-22T04:18:57;100406.44;;;8.09;68.79
42811;BME280;28457;55.680;37.656;2022-10-22T04:21:25;100403.75;;;8.09;68.74
42811;BME280;28457;55.680;37.656;2022-10-22T04:23:53;100405.94;;;8.06;68.49
42811;BME280;28457;55.680;37.656;2022-10-22T04:26:22;100401.06;;;8.01;68.70
42811;BME280;28457;55.680;37.656;2022-10-22T04:28:52;100397.03;;;7.97;68.93
42811;BME280;28457;55.680;37.656;2022-10-22T04:31:22;100404.72;;;8.00;68.85
42811;BME280;28457;55.680;37.656;2022-10-22T04:33:52;100411.63;;;8.03;68.79
42811;BME280;28457;55.680;37.656;2022-10-22T04:36:21;100409.09;;;8.01;68.51
42811;BME280;28457;55.680;37.656;2022-10-22T04:38:52;100415.94;;;7.96;69.29
42811;BME280;28457;55.680;37.656;2022-10-22T04:41:22;100411.78;;;8.01;68.79
42811;BME280;28457;55.680;37.656;2022-10-22T04:43:54;100411.78;;;8.01;69.06
42811;BME280;28457;55.680;37.656;2022-10-22T04:46:23;100411.63;;;8.03;69.72
42811;BME280;28457;55.680;37.656;2022-10-22T04:48:52;100410.78;;;8.02;69.60
42811;BME280;28457;55.680;37.656;2022-10-22T04:51:22;100416.13;;;8.02;69.66
42811;BME280;28457;55.680;37.656;2022-10-22T04:53:51;100414.28;;;8.03;69.73
42811;BME280;28457;55.680;37.656;2022-10-22T04:56:21;100416.84;;;8.04;70.35
42811;BME280;28457;55.680;37.656;2022-10-22T04:58:53;100415.00;;;8.05;69.79
42811;BME280;28457;55.680;37.656;2022-10-22T05:01:23;100412.13;;;8.06;70.49
42811;BME280;28457;55.680;37.656;2022-10-22T05:03:54;100415.66;;;8.07;69.85
42811;BME280;28457;55.680;37.656;2022-10-22T05:06:24;100422.38;;;8.11;70.13
42811;BME280;28457;55.680;37.656;2022-10-22T05:08:54;100412.31;;;8.13;69.81
42811;BME280;28457;55.680;37.656;2022-10-22T05:11:25;100422.88;;;8.14;69.55
42811;BME280;28457;55.680;37.656;2022-10-22T05:13:56;100425.09;;;8.19;69.98
42811;BME280;28457;55.680;37.656;2022-10-22T05:16:26;100421.59;;;8.19;69.80
42811;BME280;28457;55.680;37.656;2022-10-22T05:18:55;100422.09;;;8.22;69.97
42811;BME280;28457;55.680;37.656;2022-10-22T05:21:25;100430.66;;;8.26;69.92
42811;BME280;28457;55.680;37.656;2022-10-22T05:23:55;100430.50;;;8.27;69.98
42811;BME280;28457;55.680;37.656;2022-10-22T05:26:26;100427.97;;;8.26;70.00
42811;BME280;28457;55.680;37.656;2022-10-22T05:28:57;100428.50;;;8.29;69.89
42811;BME280;28457;55.680;37.656;2022-10-22T05:31:25;100428.16;;;8.32;70.04
42811;BME280;28457;55.680;37.656;2022-10-22T05:33:54;100432.34;;;8.35;69.94
42811;BME280;28457;55.680;37.656;2022-10-22T05:36:23;100431.22;;;8.37;70.18
42811;BME280;28457;55.680;37.656;2022-10-22T05:38:51;100437.28;;;8.39;70.00
42811;BME280;28457;55.680;37.656;2022-10-22T05:41:21;100430.06;;;8.40;70.01
42811;BME280;28457;55.680;37.656;2022-10-22T05:43:52;100433.91;;;8.37;69.55
42811;BME280;28457;55.680;37.656;2022-10-22T05:46:24;100439.41;;;8.36;69.44
42811;BME280;28457;55.680;37.656;2022-10-22T05:48:53;100438.97;;;8.41;69.05
42811;BME280;28457;55.680;37.656;2022-10-22T05:51:23;100436.06;;;8.34;68.40
42811;BME280;28457;55.680;37.656;2022-10-22T05:53:53;100443.59;;;8.30;68.83
42811;BME280;28457;55.680;37.656;2022-10-22T05:56:22;100440.25;;;8.36;68.90
42811;BME280;28457;55.680;37.656;2022-10-22T05:58:51;100446.19;;;8.40;68.42
42811;BME280;28457;55.680;37.656;2022-10-22T06:01:21;100443.09;;;8.35;68.57
42811;BME280;28457;55.680;37.656;2022-10-22T06:03:53;100442.94;;;8.36;68.65
42811;BME280;28457;55.680;37.656;2022-10-22T06:06:26;100447.16;;;8.39;68.60
42811;BME280;28457;55.680;37.656;2022-10-22T06:08:59;100446.78;;;8.34;68.46
42811;BME280;28457;55.680;37.656;2022-10-22T06:11:28;100445.78;;;8.35;68.92
42811;BME280;28457;55.680;37.656;2022-10-22T06:14:01;100451.13;;;8.35;68.68
42811;BME280;28457;55.680;37.656;2022-10-22T06:16:29;100443.78;;;8.37;68.46
42811;BME280;28457;55.680;37.656;2022-10-22T06:18:59;100443.63;;;8.38;68.37
42811;BME280;28457;55.680;37.656;2022-10-22T06:21:29;100447.00;;;8.41;68.03
42811;BME280;28457;55.680;37.656;2022-10-22T06:23:59;100449.38;;;8.44;68.43
42811;BME280;28457;55.680;37.656;2022-10-22T06:26:28;100450.88;;;8.46;68.07
42811;BME280;28457;55.680;37.656;2022-10-22T06:28:57;100444.53;;;8.47;68.05
42811;BME280;28457;55.680;37.656;2022-10-22T06:31:26;100452.72;;;8.46;68.43
42811;BME280;28457;55.680;37.656;2022-10-22T06:33:55;100445.00;;;8.43;68.89
42811;BME280;28457;55.680;37.656;2022-10-22T06:36:25;100454.56;;;8.45;69.14
42811;BME280;28457;55.680;37.656;2022-10-22T06:38:54;100453.91;;;8.51;69.05
42811;BME280;28457;55.680;37.656;2022-10-22T06:41:23;100453.41;;;8.56;68.48
42811;BME280;28457;55.680;37.656;2022-10-22T06:43:55;100456.63;;;8.59;68.20
42811;BME280;28457;55.680;37.656;2022-10-22T06:46:24;100463.34;;;8.63;68.67
42811;BME280;28457;55.680;37.656;2022-10-22T06:48:55;100463.84;;;8.67;68.66
42811;BME280;28457;55.680;37.656;2022-10-22T06:51:26;100463.34;;;8.63;68.27
42811;BME280;28457;55.680;37.656;2022-10-22T06:53:56;100470.41;;;8.65;68.39
42811;BME280;28457;55.680;37.656;2022-10-22T06:56:26;100462.00;;;8.68;68.26
42811;BME280;28457;55.680;37.656;2022-10-22T06:58:56;100469.91;;;8.69;68.50
42811;BME280;28457;55.680;37.656;2022-10-22T07:01:26;100468.91;;;8.70;68.08
42811;BME280;28457;55.680;37.656;2022-10-22T07:03:55;100471.44;;;8.72;68.16
42811;BME280;28457;55.680;37.656;2022-10-22T07:06:27;100473.94;;;8.73;67.25
42811;BME280;28457;55.680;37.656;2022-10-22T07:08:56;100474.28;;;8.70;67.75
42811;BME280;28457;55.680;37.656;2022-10-22T07:11:27;100480.84;;;8.76;68.18
42811;BME280;28457;55.680;37.656;2022-10-22T07:13:57;100472.28;;;8.80;67.47
42811;BME280;28457;55.680;37.656;2022-10-22T07:16:26;100476.63;;;8.81;67.56
42811;BME280;28457;55.680;37.656;2022-10-22T07:18:58;100476.50;;;8.83;66.65
42811;BME280;28457;55.680;37.656;2022-10-22T07:21:28;100482.19;;;8.88;66.87
42811;BME280;28457;55.680;37.656;2022-10-22T07:23:57;100471.13;;;8.91;66.55
42811;BME280;28457;55.680;37.656;2022-10-22T07:26:27;100480.00;;;8.83;66.70
42811;BME280;28457;55.680;37.656;2022-10-22T07:28:57;100486.22;;;8.84;66.64
42811;BME280;28457;55.680;37.656;2022-10-22T07:31:25;100485.72;;;8.80;66.96
42811;BME280;28457;55.680;37.656;2022-10-22T07:33:54;100484.38;;;8.76;66.80
42811;BME280;28457;55.680;37.656;2022-10-22T07:36:22;100481.88;;;8.83;66.91
42811;BME280;28457;55.680;37.656;2022-10-22T07:38:55;100479.69;;;8.86;66.62
42811;BME280;28457;55.680;37.656;2022-10-22T07:41:25;100474.66;;;8.92;66.58
42811;BME280;28457;55.680;37.656;2022-10-22T07:43:54;100478.84;;;8.86;66.51
42811;BME280;28457;55.680;37.656;2022-10-22T07:46:23;100481.50;;;8.78;65.61
42811;BME280;28457;55.680;37.656;2022-10-22T07:48:52;100486.53;;;8.73;65.83
42811;BME280;28457;55.680;37.656;2022-10-22T07:51:21;100482.84;;;8.82;66.01
42811;BME280;28457;55.680;37.656;2022-10-22T07:53:49;100479.19;;;8.83;65.59
42811;BME280;28457;55.680;37.656;2022-10-22T07:56:19;100473.31;;;8.87;66.04
42811;BME280;28457;55.680;37.656;2022-10-22T07:58:47;100471.63;;;8.86;66.13
42811;BME280;28457;55.680;37.656;2022-10-22T08:01:16;100480.03;;;8.92;66.70
42811;BME280;28457;55.680;37.656;2022-10-22T08:03:44;100482.38;;;8.95;66.25
42811;BME280;28457;55.680;37.656;2022-10-22T08:06:13;100482.69;;;8.92;65.54
42811;BME280;28457;55.680;37.656;2022-10-22T08:08:42;100478.69;;;8.96;65.60
42811;BME280;28457;55.680;37.656;2022-10-22T08:11:11;100482.56;;;9.01;65.05
42811;BME280;28457;55.680;37.656;2022-10-22T08:13:41;100481.03;;;8.99;65.64
42811;BME280;28457;55.680;37.656;2022-10-22T08:16:12;100479.53;;;9.04;65.62
42811;BME280;28457;55.680;37.656;2022-10-22T08:18:41;100473.66;;;9.09;64.84
42811;BME280;28457;55.680;37.656;2022-10-22T08:21:09;100476.69;;;9.14;64.77
42811;BME280;28457;55.680;37.656;2022-10-22T08:23:38;100472.81;;;9.17;64.78
42811;BME280;28457;55.680;37.656;2022-10-22T08:26:06;100476.84;;;9.13;63.43
42811;BME280;28457;55.680;37.656;2022-10-22T08:28:35;100475.84;;;9.05;64.69
42811;BME280;28457;55.680;37.656;2022-10-22T08:31:06;100474.69;;;9.08;63.55
42811;BME280;28457;55.680;37.656;2022-10-22T08:33:35;100474.81;;;9.06;64.34
42811;BME280;28457;55.680;37.656;2022-10-22T08:36:05;100475.19;;;9.11;65.03
42811;BME280;28457;55.680;37.656;2022-10-22T08:38:34;100475.00;;;9.13;64.66
42811;BME280;28457;55.680;37.656;2022-10-22T08:41:08;100478.19;;;9.08;64.07
42811;BME280;28457;55.680;37.656;2022-10-22T08:44:01;100473.66;;;9.09;64.38
42811;BME280;28457;55.680;37.656;2022-10-22T08:46:42;100481.88;;;8.99;63.52
42811;BME280;28457;55.680;37.656;2022-10-22T08:49:18;100473.63;;;8.93;63.68
42811;BME280;28457;55.680;37.656;2022-10-22T08:51:47;100471.81;;;8.93;63.58
42811;BME280;28457;55.680;37.656;2022-10-22T08:54:24;100479.88;;;8.93;62.89
42811;BME280;28457;55.680;37.656;2022-10-22T08:57:14;100476.81;;;8.96;63.94
42811;BME280;28457;55.680;37.656;2022-10-22T08:59:51;100477.50;;;9.06;64.36
42811;BME280;28457;55.680;37.656;2022-10-22T09:02:34;100471.31;;;9.06;63.48
42811;BME280;28457;55.680;37.656;2022-10-22T09:05:15;100478.84;;;9.10;63.29
42811;BME280;28457;55.680;37.656;2022-10-22T09:07:47;100472.00;;;9.16;63.85
42811;BME280;28457;55.680;37.656;2022-10-22T09:10:17;100475.00;;;9.21;63.20
42811;BME280;28457;55.680;37.656;2022-10-22T09:12:46;100479.72;;;9.19;63.27
42811;BME280;28457;55.680;37.656;2022-10-22T09:15:17;100478.56;;;9.22;63.47
42811;BME280;28457;55.680;37.656;2022-10-22T09:17:57;100479.22;;;9.24;62.56
42811;BME280;28457;55.680;37.656;2022-10-22T09:20:30;100473.66;;;9.17;63.56
42811;BME280;28457;55.680;37.656;2022-10-22T09:23:15;100471.31;;;9.22;62.65
42811;BME280;28457;55.680;37.656;2022-10-22T09:25:49;100469.63;;;9.21;62.81
42811;BME280;28457;55.680;37.656;2022-10-22T09:28:18;100466.94;;;9.13;62.18
42811;BME280;28457;55.680;37.656;2022-10-22T09:30:47;100474.69;;;9.08;62.06
42811;BME280;28457;55.680;37.656;2022-10-22T09:33:19;100471.31;;;9.06;62.89
42811;BME280;28457;55.680;37.656;2022-10-22T09:35:52;100467.44;;;9.08;62.61
42811;BME280;28457;55.680;37.656;2022-10-22T09:38:24;100464.41;;;9.03;62.90
42811;BME280;28457;55.680;37.656;2022-10-22T09:40:55;100471.16;;;9.07;63.23
42811;BME280;28457;55.680;37.656;2022-10-22T09:43:24;100470.78;;;9.10;63.16
42811;BME280;28457;55.680;37.656;2022-10-22T09:45:55;100473.34;;;9.12;62.98
42811;BME280;28457;55.680;37.656;2022-10-22T09:48:31;100475.69;;;9.15;62.82
42811;BME280;28457;55.680;37.656;2022-10-22T09:51:05;100478.34;;;9.07;62.88
42811;BME280;28457;55.680;37.656;2022-10-22T09:53:38;100474.69;;;9.08;63.11
42811;BME280;28457;55.680;37.656;2022-10-22T09:56:17;100466.28;;;9.11;63.46
42811;BME280;28457;55.680;37.656;2022-10-22T09:58:49;100474.34;;;9.11;63.33
42811;BME280;28457;55.680;37.656;2022-10-22T10:01:20;100470.66;;;9.12;63.02
42811;BME280;28457;55.680;37.656;2022-10-22T10:03:50;100462.91;;;9.09;63.44
42811;BME280;28457;55.680;37.656;2022-10-22T10:06:21;100458.56;;;9.08;63.46
42811;BME280;28457;55.680;37.656;2022-10-22T10:08:49;100457.72;;;9.07;63.28
42811;BME280;28457;55.680;37.656;2022-10-22T10:11:25;100457.53;;;9.09;62.51
42811;BME280;28457;55.680;37.656;2022-10-22T10:14:06;100450.97;;;9.03;63.21
42811;BME280;28457;55.680;37.656;2022-10-22T10:16:48;100448.63;;;9.08;63.55
42811;BME280;28457;55.680;37.656;2022-10-22T10:19:36;100449.16;;;9.12;63.23
42811;BME280;28457;55.680;37.656;2022-10-22T10:22:17;100450.47;;;9.16;63.01
42811;BME280;28457;55.680;37.656;2022-10-22T10:25:00;100450.63;;;9.06;63.05
42811;BME280;28457;55.680;37.656;2022-10-22T10:27:34;100449.16;;;9.12;62.94
42811;BME280;28457;55.680;37.656;2022-10-22T10:30:10;100447.81;;;9.16;62.73
42811;BME280;28457;55.680;37.656;2022-10-22T10:32:50;100443.75;;;9.20;62.66
42811;BME280;28457;55.680;37.656;2022-10-22T10:35:25;100431.50;;;9.26;62.43
42811;BME280;28457;55.680;37.656;2022-10-22T10:38:07;100437.88;;;9.25;62.17
42811;BME280;28457;55.680;37.656;2022-10-22T10:40:42;100432.00;;;9.29;62.14
42811;BME280;28457;55.680;37.656;2022-10-22T10:43:17;100435.84;;;9.35;61.84
42811;BME280;28457;55.680;37.656;2022-10-22T10:45:57;100438.38;;;9.37;62.30
42811;BME280;28457;55.680;37.656;2022-10-22T10:48:44;100433.88;;;9.29;61.74
42811;BME280;28457;55.680;37.656;2022-10-22T10:51:30;100439.75;;;9.32;62.38
42811;BME280;28457;55.680;37.656;2022-10-22T10:54:11;100427.28;;;9.31;62.29
42811;BME280;28457;55.680;37.656;2022-10-22T10:56:44;100432.00;;;9.38;61.93
42811;BME280;28457;55.680;37.656;2022-10-22T10:59:18;100429.31;;;9.38;61.59
42811;BME280;28457;55.680;37.656;2022-10-22T11:02:06;100430.31;;;9.37;61.70
42811;BME280;28457;55.680;37.656;2022-10-22T11:04:57;100428.13;;;9.40;61.80
42811;BME280;28457;55.680;37.656;2022-10-22T11:07:37;100421.25;;;9.38;61.75
42811;BME280;28457;55.680;37.656;2022-10-22T11:10:16;100422.75;;;9.40;61.53
42811;BME280;28457;55.680;37.656;2022-10-22T11:12:47;100419.22;;;9.40;61.32
42811;BME280;28457;55.680;37.656;2022-10-22T11:15:25;100417.88;;;9.44;61.53
42811;BME280;28457;55.680;37.656;2022-10-22T11:18:00;100415.00;;;9.45;62.29
42811;BME280;28457;55.680;37.656;2022-10-22T11:20:40;100413.00;;;9.47;61.79
42811;BME280;28457;55.680;37.656;2022-10-22T11:23:15;100417.22;;;9.50;61.86
42811;BME280;28457;55.680;37.656;2022-10-22T11:25:48;100415.34;;;9.42;61.67
42811;BME280;28457;55.680;37.656;2022-10-22T11:28:20;100413.84;;;9.40;60.81
42811;BME280;28457;55.680;37.656;2022-10-22T11:30:57;100415.69;;;9.31;61.85
42811;BME280;28457;55.680;37.656;2022-10-22T11:33:32;100402.44;;;9.29;61.37
42811;BME280;28457;55.680;37.656;2022-10-22T11:36:06;100407.31;;;9.34;61.37
42811;BME280;28457;55.680;37.656;2022-10-22T11:38:37;100411.00;;;9.33;61.40
42811;BME280;28457;55.680;37.656;2022-10-22T11:41:09;100408.97;;;9.35;61.01
42811;BME280;28457;55.680;37.656;2022-10-22T11:43:52;100406.78;;;9.39;60.88
42811;BME280;28457;55.680;37.656;2022-10-22T11:46:44;100394.88;;;9.33;61.97
42811;BME280;28457;55.680;37.656;2022-10-22T11:49:22;100398.06;;;9.37;61.53
42811;BME280;28457;55.680;37.656;2022-10-22T11:52:04;100399.56;;;9.39;61.11
42811;BME280;28457;55.680;37.656;2022-10-22T11:54:41;100394.03;;;9.24;61.77
42811;BME280;28457;55.680;37.656;2022-10-22T11:57:17;100397.22;;;9.28;61.20
42811;BME280;28457;55.680;37.656;2022-10-22T11:59:50;100389.00;;;9.29;61.62
42811;BME280;28457;55.680;37.656;2022-10-22T12:02:45;100392.03;;;9.26;61.65
42811;BME280;28457;55.680;37.656;2022-10-22T12:05:18;100392.19;;;9.25;61.75
42811;BME280;28457;55.680;37.656;2022-10-22T12:07:52;100393.38;;;9.22;61.68
42811;BME280;28457;55.680;37.656;2022-10-22T12:10:26;100395.88;;;9.24;61.89
42811;BME280;28457;55.680;37.656;2022-10-22T12:13:04;100390.34;;;9.25;61.62
42811;BME280;28457;55.680;37.656;2022-10-22T12:15:46;100387.31;;;9.28;61.27
42811;BME280;28457;55.680;37.656;2022-10-22T12:18:15;100384.28;;;9.31;61.30
42811;BME280;28457;55.680;37.656;2022-10-22T12:20:48;100384.78;;;9.35;60.90
42811;BME280;28457;55.680;37.656;2022-10-22T12:23:18;100380.22;;;9.35;60.81
42811;BME280;28457;55.680;37.656;2022-10-22T12:25:49;100378.56;;;9.34;60.60
42811;BME280;28457;55.680;37.656;2022-10-22T12:28:17;100371.34;;;9.35;61.63
42811;BME280;28457;55.680;37.656;2022-10-22T12:30:46;100368.81;;;9.33;61.49
42811;BME280;28457;55.680;37.656;2022-10-22T12:33:20;100376.22;;;9.31;61.58
42811;BME280;28457;55.680;37.656;2022-10-22T12:35:50;100372.03;;;9.29;60.87
42811;BME280;28457;55.680;37.656;2022-10-22T12:38:23;100367.84;;;9.26;62.22
42811;BME280;28457;55.680;37.656;2022-10-22T12:40:55;100362.28;;;9.28;61.13
42811;BME280;28457;55.680;37.656;2022-10-22T12:43:25;100359.09;;;9.32;61.10
42811;BME280;28457;55.680;37.656;2022-10-22T12:45:55;100355.38;;;9.33;61.19
42811;BME280;28457;55.680;37.656;2022-10-22T12:48:27;100352.69;;;9.33;60.74
42811;BME280;28457;55.680;37.656;2022-10-22T12:50:59;100358.06;;;9.33;59.99
42811;BME280;28457;55.680;37.656;2022-10-22T12:53:30;100361.28;;;9.29;61.45
42811;BME280;28457;55.680;37.656;2022-10-22T12:56:02;100356.56;;;9.31;60.73
42811;BME280;28457;55.680;37.656;2022-10-22T12:58:35;100353.72;;;9.32;61.01
42811;BME280;28457;55.680;37.656;2022-10-22T13:01:05;100356.75;;;9.29;61.03
42811;BME280;28457;55.680;37.656;2022-10-22T13:03:35;100356.06;;;9.27;60.74
42811;BME280;28457;55.680;37.656;2022-10-22T13:06:12;100352.50;;;9.35;60.97
42811;BME280;28457;55.680;37.656;2022-10-22T13:08:41;100354.53;;;9.25;60.85
42811;BME280;28457;55.680;37.656;2022-10-22T13:11:11;100357.94;;;9.19;61.71
42811;BME280;28457;55.680;37.656;2022-10-22T13:13:43;100352.88;;;9.24;62.36
42811;BME280;28457;55.680;37.656;2022-10-22T13:16:13;100353.91;;;9.23;62.65